QTR8357 KIAH-EBLG
Flight info
| Callsign | QTR8357 |
|---|---|
| Flight time | N/A |
| Altitude | 31000 |
| Route | LURIC8 HAWES DCT ELD DCT KM36M DCT KI48Q DCT KC60U DCT PSB J49 MAGIO/N0483F330 J49 ALB DCT TOPPS N607A SAXAN/M084F330 DCT 5230N05000W 54N040W 5430N03000W 5330N02000W DCT MALOT/N0481F330 DCT GISTI/N0476F350 DCT EVRIN DCT JETZI DCT AMFUL DCT CAWZE DCT SIRIC P2 DVR/N0447F230 L18 VABIK Q70 KOK |
| Aircraft | B77L/H-SDE1E2E3FGHIJ2J3J4J5M1RWXY/LB1D1 |
Departure
| Time | N/A |
|---|---|
| Airport | George Bush Intercontinental Airport (KIAH) |
Arrival
| Time | 2026-05-05 13:56 |
|---|---|
| Airport | Liège Airport (EBLG) |
| Time | Latitude | Longitude | Altitude | Speed | Heading |
|---|---|---|---|---|---|
| 2026-05-05 12:22 | 52.70383 | -11.86073 | 35103 ft | 497 kts | 103° |
| 2026-05-05 12:22 | 52.69560 | -11.80539 | 35102 ft | 497 kts | 103° |
| 2026-05-05 12:22 | 52.67906 | -11.69475 | 35100 ft | 496 kts | 103° |
| 2026-05-05 12:23 | 52.66249 | -11.58471 | 35105 ft | 497 kts | 104° |
| 2026-05-05 12:23 | 52.64579 | -11.47429 | 35103 ft | 497 kts | 104° |
| 2026-05-05 12:24 | 52.62904 | -11.36437 | 35104 ft | 497 kts | 104° |
| 2026-05-05 12:24 | 52.61204 | -11.25384 | 35102 ft | 497 kts | 104° |
| 2026-05-05 12:25 | 52.59505 | -11.14402 | 35100 ft | 497 kts | 104° |
| 2026-05-05 12:25 | 52.57789 | -11.03378 | 35104 ft | 496 kts | 104° |
| 2026-05-05 12:26 | 52.56065 | -10.92375 | 35104 ft | 497 kts | 104° |
| 2026-05-05 12:26 | 52.54339 | -10.81433 | 35098 ft | 497 kts | 104° |
| 2026-05-05 12:27 | 52.52588 | -10.70405 | 35104 ft | 497 kts | 104° |
| 2026-05-05 12:27 | 52.50840 | -10.59477 | 35102 ft | 496 kts | 104° |
| 2026-05-05 12:28 | 52.49070 | -10.48481 | 35102 ft | 496 kts | 104° |
| 2026-05-05 12:28 | 52.47309 | -10.37607 | 35100 ft | 496 kts | 104° |
| 2026-05-05 12:29 | 52.45524 | -10.26661 | 35105 ft | 496 kts | 104° |
| 2026-05-05 12:29 | 52.43739 | -10.15785 | 35100 ft | 496 kts | 104° |
| 2026-05-05 12:30 | 52.41928 | -10.04813 | 35100 ft | 496 kts | 104° |
| 2026-05-05 12:30 | 52.40130 | -9.93998 | 35103 ft | 495 kts | 105° |
| 2026-05-05 12:31 | 52.38307 | -9.83109 | 35101 ft | 495 kts | 105° |
| 2026-05-05 12:31 | 52.36491 | -9.72319 | 35105 ft | 495 kts | 105° |
| 2026-05-05 12:32 | 52.34652 | -9.61455 | 35104 ft | 495 kts | 105° |
| 2026-05-05 12:32 | 52.32802 | -9.50596 | 35101 ft | 495 kts | 105° |
| 2026-05-05 12:33 | 52.30940 | -9.39731 | 35101 ft | 495 kts | 105° |
| 2026-05-05 12:33 | 52.29083 | -9.28973 | 35104 ft | 494 kts | 105° |
| 2026-05-05 12:34 | 52.27206 | -9.18157 | 35098 ft | 494 kts | 105° |
| 2026-05-05 12:34 | 52.25336 | -9.07442 | 35104 ft | 493 kts | 105° |
| 2026-05-05 12:35 | 52.23439 | -8.96664 | 35102 ft | 493 kts | 105° |
| 2026-05-05 12:35 | 52.21548 | -8.85973 | 35104 ft | 492 kts | 106° |
| 2026-05-05 12:36 | 52.19642 | -8.75241 | 35101 ft | 491 kts | 106° |
| 2026-05-05 12:36 | 52.17728 | -8.64535 | 35101 ft | 491 kts | 106° |
| 2026-05-05 12:37 | 52.15817 | -8.53921 | 35103 ft | 490 kts | 106° |
| 2026-05-05 12:37 | 52.13892 | -8.43285 | 35105 ft | 489 kts | 106° |
| 2026-05-05 12:38 | 52.11955 | -8.32640 | 35101 ft | 489 kts | 106° |
| 2026-05-05 12:38 | 52.10025 | -8.22104 | 35101 ft | 488 kts | 106° |
| 2026-05-05 12:39 | 52.08075 | -8.11517 | 35100 ft | 488 kts | 107° |
| 2026-05-05 12:39 | 52.06115 | -8.00942 | 35101 ft | 488 kts | 107° |
| 2026-05-05 12:40 | 52.04155 | -7.90422 | 35094 ft | 488 kts | 107° |
| 2026-05-05 12:40 | 52.02191 | -7.79934 | 35105 ft | 488 kts | 107° |
| 2026-05-05 12:41 | 52.00204 | -7.69377 | 35102 ft | 488 kts | 107° |
| 2026-05-05 12:41 | 51.98219 | -7.58889 | 35099 ft | 487 kts | 107° |
| 2026-05-05 12:42 | 51.96212 | -7.48356 | 35102 ft | 487 kts | 107° |
| 2026-05-05 12:42 | 51.94216 | -7.37934 | 35101 ft | 486 kts | 107° |
| 2026-05-05 12:43 | 51.92200 | -7.27480 | 35103 ft | 485 kts | 107° |
| 2026-05-05 12:43 | 51.90181 | -7.17044 | 35102 ft | 485 kts | 107° |
| 2026-05-05 12:44 | 51.88155 | -7.06644 | 35100 ft | 483 kts | 107° |
| 2026-05-05 12:44 | 51.86134 | -6.96321 | 35104 ft | 483 kts | 107° |
| 2026-05-05 12:45 | 51.84108 | -6.86023 | 35101 ft | 482 kts | 107° |
| 2026-05-05 12:45 | 51.82066 | -6.75701 | 35103 ft | 481 kts | 107° |
| 2026-05-05 12:46 | 51.80015 | -6.65382 | 35102 ft | 481 kts | 107° |
| 2026-05-05 12:46 | 51.78096 | -6.55097 | 35102 ft | 480 kts | 102° |
| 2026-05-05 12:47 | 51.77038 | -6.44466 | 35102 ft | 478 kts | 97° |
| 2026-05-05 12:47 | 51.76126 | -6.33887 | 35084 ft | 478 kts | 97° |
| 2026-05-05 12:48 | 51.75175 | -6.23233 | 35092 ft | 478 kts | 97° |
| 2026-05-05 12:48 | 51.74198 | -6.12668 | 35082 ft | 478 kts | 97° |
| 2026-05-05 12:49 | 51.73195 | -6.02036 | 35091 ft | 478 kts | 97° |
| 2026-05-05 12:49 | 51.72192 | -5.91492 | 35076 ft | 478 kts | 98° |
| 2026-05-05 12:50 | 51.71173 | -5.80869 | 35071 ft | 478 kts | 98° |
| 2026-05-05 12:50 | 51.70150 | -5.70317 | 35058 ft | 478 kts | 98° |
| 2026-05-05 12:51 | 51.69114 | -5.59718 | 35050 ft | 477 kts | 98° |
| 2026-05-05 12:51 | 51.68066 | -5.49130 | 35045 ft | 478 kts | 98° |
| 2026-05-05 12:52 | 51.67016 | -5.38614 | 35046 ft | 478 kts | 98° |
| 2026-05-05 12:52 | 51.66131 | -5.29809 | 35039 ft | 478 kts | 98° |
| 2026-05-05 12:53 | 51.65057 | -5.19221 | 35035 ft | 479 kts | 99° |
| 2026-05-05 12:53 | 51.63977 | -5.08656 | 35038 ft | 479 kts | 99° |
| 2026-05-05 12:54 | 51.62333 | -4.92797 | 35026 ft | 479 kts | 99° |
| 2026-05-05 12:55 | 51.61234 | -4.82271 | 35028 ft | 479 kts | 99° |
| 2026-05-05 12:55 | 51.60114 | -4.71692 | 35027 ft | 479 kts | 99° |
| 2026-05-05 12:56 | 51.58986 | -4.61124 | 35030 ft | 479 kts | 99° |
| 2026-05-05 12:56 | 51.57855 | -4.50618 | 35024 ft | 479 kts | 100° |
| 2026-05-05 12:57 | 51.56705 | -4.40030 | 35020 ft | 479 kts | 100° |
| 2026-05-05 12:57 | 51.55557 | -4.29533 | 35016 ft | 478 kts | 100° |
| 2026-05-05 12:58 | 51.54394 | -4.19002 | 35015 ft | 479 kts | 100° |
| 2026-05-05 12:58 | 51.53223 | -4.08497 | 35011 ft | 479 kts | 100° |
| 2026-05-05 12:59 | 51.52046 | -3.98006 | 35019 ft | 478 kts | 100° |
| 2026-05-05 12:59 | 51.50856 | -3.87486 | 35019 ft | 479 kts | 101° |
| 2026-05-05 13:00 | 51.49006 | -3.71662 | 35018 ft | 480 kts | 101° |
| 2026-05-05 13:01 | 51.47152 | -3.50499 | 35022 ft | 480 kts | 95° |
| 2026-05-05 13:01 | 51.46565 | -3.39807 | 35016 ft | 480 kts | 96° |
| 2026-05-05 13:02 | 51.45954 | -3.29191 | 35018 ft | 480 kts | 96° |
| 2026-05-05 13:02 | 51.45309 | -3.18484 | 35015 ft | 481 kts | 96° |
| 2026-05-05 13:03 | 51.44657 | -3.07874 | 35018 ft | 481 kts | 96° |
| 2026-05-05 13:03 | 51.43990 | -2.97155 | 35011 ft | 481 kts | 97° |
| 2026-05-05 13:04 | 51.43315 | -2.86518 | 35001 ft | 482 kts | 97° |
| 2026-05-05 13:04 | 51.42627 | -2.75793 | 35009 ft | 482 kts | 97° |
| 2026-05-05 13:05 | 51.41934 | -2.65169 | 35001 ft | 482 kts | 97° |
| 2026-05-05 13:05 | 51.41227 | -2.54470 | 34986 ft | 482 kts | 97° |
| 2026-05-05 13:06 | 51.40517 | -2.43849 | 34989 ft | 482 kts | 97° |
| 2026-05-05 13:06 | 51.39792 | -2.33152 | 35000 ft | 483 kts | 98° |
| 2026-05-05 13:07 | 51.39054 | -2.22452 | 34987 ft | 483 kts | 98° |
| 2026-05-05 13:07 | 51.38312 | -2.11815 | 34990 ft | 483 kts | 98° |
| 2026-05-05 13:08 | 51.37559 | -2.01110 | 34979 ft | 483 kts | 98° |
| 2026-05-05 13:08 | 51.36794 | -1.90466 | 34981 ft | 483 kts | 98° |
| 2026-05-05 13:09 | 51.36013 | -1.79749 | 34981 ft | 483 kts | 98° |
| 2026-05-05 13:09 | 51.35226 | -1.69050 | 34965 ft | 483 kts | 98° |
| 2026-05-05 13:10 | 51.34437 | -1.58420 | 34970 ft | 483 kts | 98° |
| 2026-05-05 13:10 | 51.33634 | -1.47711 | 34973 ft | 483 kts | 98° |
| 2026-05-05 13:11 | 51.32833 | -1.37090 | 34971 ft | 483 kts | 98° |
| 2026-05-05 13:11 | 51.32018 | -1.26395 | 34964 ft | 483 kts | 99° |
| 2026-05-05 13:12 | 51.31201 | -1.15783 | 34962 ft | 483 kts | 98° |
| 2026-05-05 13:12 | 51.30608 | -1.05042 | 34964 ft | 484 kts | 96° |
| 2026-05-05 13:13 | 51.30134 | -0.94331 | 34962 ft | 484 kts | 96° |
| 2026-05-05 13:13 | 51.29624 | -0.83571 | 34966 ft | 484 kts | 96° |
| 2026-05-05 13:14 | 51.29072 | -0.72900 | 34962 ft | 484 kts | 96° |
| 2026-05-05 13:14 | 51.28501 | -0.62172 | 34963 ft | 484 kts | 96° |
| 2026-05-05 13:15 | 51.27924 | -0.51440 | 34963 ft | 484 kts | 97° |
| 2026-05-05 13:15 | 51.27338 | -0.40712 | 34965 ft | 484 kts | 97° |
| 2026-05-05 13:16 | 51.26745 | -0.30047 | 34959 ft | 484 kts | 97° |
| 2026-05-05 13:16 | 51.26139 | -0.19318 | 34952 ft | 484 kts | 97° |
| 2026-05-05 13:17 | 51.25527 | -0.08650 | 34955 ft | 484 kts | 97° |
| 2026-05-05 13:17 | 51.24902 | 0.02076 | 34957 ft | 484 kts | 97° |
| 2026-05-05 13:18 | 51.24278 | 0.12810 | 34965 ft | 485 kts | 98° |
| 2026-05-05 13:18 | 51.23660 | 0.23487 | 34963 ft | 485 kts | 98° |
| 2026-05-05 13:19 | 51.23019 | 0.34213 | 34960 ft | 484 kts | 98° |
| 2026-05-05 13:19 | 51.22356 | 0.44851 | 34957 ft | 484 kts | 98° |
| 2026-05-05 13:20 | 51.21685 | 0.55557 | 34952 ft | 484 kts | 98° |
| 2026-05-05 13:20 | 51.21002 | 0.66243 | 34956 ft | 484 kts | 98° |
| 2026-05-05 13:21 | 51.20305 | 0.76936 | 34949 ft | 484 kts | 98° |
| 2026-05-05 13:21 | 51.19603 | 0.87584 | 34943 ft | 484 kts | 99° |
| 2026-05-05 13:22 | 51.18894 | 0.98214 | 34943 ft | 484 kts | 99° |
| 2026-05-05 13:22 | 51.18169 | 1.08930 | 34942 ft | 485 kts | 99° |
| 2026-05-05 13:23 | 51.17473 | 1.19639 | 34943 ft | 486 kts | 98° |
| 2026-05-05 13:23 | 51.16956 | 1.30339 | 34944 ft | 486 kts | 97° |
| 2026-05-05 13:24 | 51.16457 | 1.41092 | 34948 ft | 486 kts | 97° |
| 2026-05-05 13:24 | 51.15924 | 1.51786 | 34941 ft | 486 kts | 98° |
| 2026-05-05 13:25 | 51.15362 | 1.62557 | 34948 ft | 487 kts | 98° |
| 2026-05-05 13:25 | 51.14789 | 1.73318 | 34939 ft | 487 kts | 98° |
| 2026-05-05 13:26 | 51.14211 | 1.84003 | 34945 ft | 487 kts | 98° |
| 2026-05-05 13:26 | 51.13619 | 1.94743 | 34932 ft | 487 kts | 98° |
| 2026-05-05 13:27 | 51.13017 | 2.05510 | 34941 ft | 487 kts | 98° |
| 2026-05-05 13:27 | 51.12408 | 2.16227 | 34933 ft | 488 kts | 99° |
| 2026-05-05 13:28 | 51.11788 | 2.26967 | 34585 ft | 485 kts | 99° |
| 2026-05-05 13:28 | 51.11478 | 2.32266 | 34267 ft | 487 kts | 99° |
| 2026-05-05 13:28 | 51.11160 | 2.37649 | 33961 ft | 487 kts | 99° |
| 2026-05-05 13:29 | 51.10841 | 2.43030 | 33646 ft | 488 kts | 99° |
| 2026-05-05 13:29 | 51.10519 | 2.48415 | 33330 ft | 488 kts | 99° |
| 2026-05-05 13:29 | 51.10195 | 2.53801 | 33026 ft | 488 kts | 99° |
| 2026-05-05 13:29 | 51.09873 | 2.59125 | 32702 ft | 488 kts | 99° |
| 2026-05-05 13:30 | 51.09542 | 2.64508 | 32386 ft | 488 kts | 100° |
| 2026-05-05 13:30 | 51.09038 | 2.69823 | 32013 ft | 485 kts | 105° |
| 2026-05-05 13:30 | 51.08282 | 2.75057 | 31639 ft | 484 kts | 108° |
| 2026-05-05 13:30 | 51.07420 | 2.80242 | 31261 ft | 483 kts | 109° |
| 2026-05-05 13:31 | 51.06552 | 2.85344 | 30868 ft | 483 kts | 108° |
| 2026-05-05 13:31 | 51.05692 | 2.90521 | 30467 ft | 484 kts | 108° |
| 2026-05-05 13:31 | 51.04857 | 2.95717 | 30153 ft | 482 kts | 107° |
| 2026-05-05 13:31 | 51.04049 | 3.00889 | 29911 ft | 478 kts | 107° |
| 2026-05-05 13:32 | 51.03272 | 3.05942 | 29668 ft | 475 kts | 107° |
| 2026-05-05 13:32 | 51.02489 | 3.11040 | 29373 ft | 473 kts | 107° |
| 2026-05-05 13:32 | 51.01705 | 3.16120 | 29051 ft | 472 kts | 107° |
| 2026-05-05 13:32 | 51.00916 | 3.21206 | 28738 ft | 471 kts | 107° |
| 2026-05-05 13:33 | 51.00137 | 3.26202 | 28441 ft | 469 kts | 107° |
| 2026-05-05 13:33 | 50.99348 | 3.31237 | 28143 ft | 468 kts | 107° |
| 2026-05-05 13:33 | 50.98562 | 3.36244 | 27880 ft | 466 kts | 107° |
| 2026-05-05 13:33 | 50.97781 | 3.41212 | 27609 ft | 463 kts | 107° |
| 2026-05-05 13:34 | 50.96999 | 3.46166 | 27317 ft | 462 kts | 107° |
| 2026-05-05 13:34 | 50.96226 | 3.51056 | 27027 ft | 460 kts | 107° |
| 2026-05-05 13:34 | 50.95473 | 3.55991 | 26751 ft | 459 kts | 106° |
| 2026-05-05 13:34 | 50.94742 | 3.60916 | 26476 ft | 457 kts | 105° |
| 2026-05-05 13:35 | 50.94019 | 3.65819 | 26198 ft | 455 kts | 105° |
| 2026-05-05 13:35 | 50.93294 | 3.70720 | 25934 ft | 454 kts | 105° |
| 2026-05-05 13:35 | 50.92816 | 3.73937 | 25765 ft | 452 kts | 105° |
| 2026-05-05 13:35 | 50.91854 | 3.80371 | 25421 ft | 450 kts | 105° |
| 2026-05-05 13:36 | 50.91128 | 3.85196 | 25159 ft | 448 kts | 105° |
| 2026-05-05 13:36 | 50.90402 | 3.89997 | 24902 ft | 447 kts | 105° |
| 2026-05-05 13:36 | 50.89920 | 3.93171 | 24734 ft | 446 kts | 105° |
| 2026-05-05 13:36 | 50.88956 | 3.99493 | 24396 ft | 443 kts | 105° |
| 2026-05-05 13:37 | 50.88467 | 4.02696 | 24219 ft | 442 kts | 105° |
| 2026-05-05 13:37 | 50.87976 | 4.05894 | 24046 ft | 441 kts | 105° |
| 2026-05-05 13:37 | 50.87515 | 4.08890 | 23878 ft | 441 kts | 105° |
| 2026-05-05 13:38 | 50.86793 | 4.13608 | 23619 ft | 439 kts | 105° |
| 2026-05-05 13:38 | 50.86069 | 4.18310 | 23081 ft | 438 kts | 105° |
| 2026-05-05 13:38 | 50.85346 | 4.22981 | 22504 ft | 434 kts | 105° |
| 2026-05-05 13:38 | 50.84636 | 4.27558 | 21937 ft | 430 kts | 106° |
| 2026-05-05 13:39 | 50.83925 | 4.32143 | 21369 ft | 427 kts | 106° |
| 2026-05-05 13:39 | 50.83219 | 4.36676 | 20799 ft | 423 kts | 106° |
| 2026-05-05 13:39 | 50.82511 | 4.41197 | 20243 ft | 420 kts | 106° |
| 2026-05-05 13:39 | 50.81811 | 4.45657 | 19691 ft | 416 kts | 106° |
| 2026-05-05 13:40 | 50.81114 | 4.50086 | 19141 ft | 413 kts | 106° |
| 2026-05-05 13:40 | 50.80420 | 4.54494 | 18589 ft | 410 kts | 106° |
| 2026-05-05 13:40 | 50.79741 | 4.58789 | 18050 ft | 407 kts | 106° |
| 2026-05-05 13:40 | 50.79055 | 4.63115 | 17500 ft | 404 kts | 106° |
| 2026-05-05 13:41 | 50.78373 | 4.67408 | 16959 ft | 401 kts | 106° |
| 2026-05-05 13:41 | 50.77691 | 4.71685 | 16420 ft | 397 kts | 105° |
| 2026-05-05 13:41 | 50.77026 | 4.75851 | 15889 ft | 394 kts | 105° |
| 2026-05-05 13:41 | 50.76354 | 4.80042 | 15358 ft | 391 kts | 105° |
| 2026-05-05 13:42 | 50.75689 | 4.84191 | 14822 ft | 388 kts | 105° |
| 2026-05-05 13:42 | 50.75028 | 4.88297 | 14297 ft | 385 kts | 105° |
| 2026-05-05 13:42 | 50.74368 | 4.92390 | 13761 ft | 381 kts | 105° |
| 2026-05-05 13:42 | 50.73721 | 4.96391 | 13249 ft | 378 kts | 105° |
| 2026-05-05 13:43 | 50.73071 | 5.00399 | 12730 ft | 375 kts | 105° |
| 2026-05-05 13:43 | 50.72425 | 5.04368 | 12217 ft | 371 kts | 105° |
| 2026-05-05 13:43 | 50.71785 | 5.08299 | 11704 ft | 368 kts | 105° |
| 2026-05-05 13:43 | 50.71152 | 5.12190 | 11177 ft | 365 kts | 105° |
| 2026-05-05 13:44 | 50.70522 | 5.16040 | 10832 ft | 357 kts | 105° |
| 2026-05-05 13:44 | 50.69908 | 5.19789 | 10640 ft | 346 kts | 105° |
| 2026-05-05 13:44 | 50.69315 | 5.23398 | 10486 ft | 333 kts | 105° |
| 2026-05-05 13:44 | 50.68750 | 5.26834 | 10348 ft | 322 kts | 105° |
| 2026-05-05 13:45 | 50.68200 | 5.30171 | 10211 ft | 305 kts | 105° |
| 2026-05-05 13:45 | 50.67686 | 5.33289 | 10143 ft | 284 kts | 105° |
| 2026-05-05 13:45 | 50.67201 | 5.36213 | 10107 ft | 269 kts | 105° |
| 2026-05-05 13:45 | 50.66736 | 5.39018 | 10025 ft | 261 kts | 105° |
| 2026-05-05 13:46 | 50.66233 | 5.41870 | 9820 ft | 277 kts | 112° |
| 2026-05-05 13:46 | 50.65130 | 5.44389 | 9504 ft | 283 kts | 142° |
| 2026-05-05 13:46 | 50.63381 | 5.45692 | 9181 ft | 278 kts | 173° |
| 2026-05-05 13:46 | 50.61508 | 5.45462 | 8886 ft | 271 kts | 194° |
| 2026-05-05 13:47 | 50.59683 | 5.44691 | 8593 ft | 271 kts | 195° |
| 2026-05-05 13:47 | 50.57866 | 5.43923 | 8287 ft | 269 kts | 195° |
| 2026-05-05 13:47 | 50.56066 | 5.43160 | 7975 ft | 267 kts | 195° |
| 2026-05-05 13:47 | 50.54267 | 5.42401 | 7672 ft | 265 kts | 195° |
| 2026-05-05 13:48 | 50.52506 | 5.41664 | 7378 ft | 264 kts | 195° |
| 2026-05-05 13:48 | 50.50730 | 5.40923 | 7080 ft | 263 kts | 194° |
| 2026-05-05 13:48 | 50.48958 | 5.40186 | 6775 ft | 262 kts | 195° |
| 2026-05-05 13:48 | 50.47213 | 5.39397 | 6472 ft | 258 kts | 203° |
| 2026-05-05 13:49 | 50.45786 | 5.37771 | 6231 ft | 258 kts | 225° |
| 2026-05-05 13:49 | 50.44513 | 5.35733 | 5934 ft | 263 kts | 224° |
| 2026-05-05 13:49 | 50.43359 | 5.33559 | 5615 ft | 260 kts | 243° |
| 2026-05-05 13:49 | 50.42962 | 5.30821 | 5340 ft | 260 kts | 272° |
| 2026-05-05 13:50 | 50.43424 | 5.28095 | 5043 ft | 261 kts | 297° |
| 2026-05-05 13:50 | 50.44538 | 5.25884 | 4758 ft | 258 kts | 315° |
| 2026-05-05 13:50 | 50.45826 | 5.23930 | 4530 ft | 255 kts | 317° |
| 2026-05-05 13:50 | 50.47298 | 5.22536 | 4374 ft | 240 kts | 346° |
| 2026-05-05 13:51 | 50.48851 | 5.22509 | 4265 ft | 219 kts | 14° |
| 2026-05-05 13:51 | 50.50241 | 5.23327 | 4044 ft | 209 kts | 30° |
| 2026-05-05 13:51 | 50.51346 | 5.24722 | 3767 ft | 200 kts | 45° |
| 2026-05-05 13:51 | 50.52302 | 5.26238 | 3554 ft | 189 kts | 46° |
| 2026-05-05 13:52 | 50.53205 | 5.27683 | 3309 ft | 182 kts | 46° |
| 2026-05-05 13:52 | 50.54084 | 5.29084 | 3058 ft | 179 kts | 46° |
| 2026-05-05 13:52 | 50.54953 | 5.30480 | 2820 ft | 177 kts | 45° |
| 2026-05-05 13:52 | 50.55784 | 5.31805 | 2576 ft | 164 kts | 45° |
| 2026-05-05 13:53 | 50.56550 | 5.33022 | 2395 ft | 153 kts | 45° |
| 2026-05-05 13:53 | 50.57290 | 5.34197 | 2188 ft | 149 kts | 44° |
| 2026-05-05 13:53 | 50.58021 | 5.35353 | 1996 ft | 148 kts | 44° |
| 2026-05-05 13:53 | 50.58742 | 5.36494 | 1795 ft | 146 kts | 43° |
| 2026-05-05 13:54 | 50.59446 | 5.37617 | 1597 ft | 145 kts | 44° |
| 2026-05-05 13:54 | 50.60157 | 5.38752 | 1402 ft | 145 kts | 44° |
| 2026-05-05 13:54 | 50.60865 | 5.39882 | 1223 ft | 145 kts | 43° |
| 2026-05-05 13:54 | 50.61580 | 5.40996 | 1043 ft | 145 kts | 43° |
| 2026-05-05 13:55 | 50.62294 | 5.42119 | 899 ft | 145 kts | 44° |
| 2026-05-05 13:55 | 50.63011 | 5.43257 | 683 ft | 147 kts | 44° |
| 2026-05-05 13:55 | 50.63669 | 5.44297 | 627 ft | 112 kts | 45° |
| 2026-05-05 13:55 | 50.64087 | 5.44957 | 605 ft | 70 kts | 45° |
| 2026-05-05 13:56 | 50.64336 | 5.45350 | 603 ft | 33 kts | 45° |
| 2026-05-05 13:56 | 50.64477 | 5.45445 | 611 ft | 22 kts | 1° |
| 2026-05-05 13:56 | 50.64570 | 5.45438 | 610 ft | 13 kts | 341° |
| 2026-05-05 13:56 | 50.64585 | 5.45324 | 611 ft | 13 kts | 237° |
| 2026-05-05 13:57 | 50.64525 | 5.45224 | 611 ft | 13 kts | 225° |
| 2026-05-05 13:57 | 50.64457 | 5.45115 | 608 ft | 16 kts | 225° |
| 2026-05-05 13:57 | 50.64355 | 5.44953 | 614 ft | 24 kts | 225° |
| 2026-05-05 13:57 | 50.64236 | 5.44768 | 613 ft | 24 kts | 225° |
| 2026-05-05 13:58 | 50.64119 | 5.44583 | 621 ft | 24 kts | 225° |
| 2026-05-05 13:58 | 50.64002 | 5.44397 | 629 ft | 24 kts | 225° |
| 2026-05-05 13:58 | 50.63884 | 5.44210 | 633 ft | 24 kts | 225° |
| 2026-05-05 13:58 | 50.63766 | 5.44024 | 632 ft | 24 kts | 225° |
| 2026-05-05 13:59 | 50.63554 | 5.43659 | 635 ft | 18 kts | 260° |
| 2026-05-05 13:59 | 50.63625 | 5.43503 | 642 ft | 18 kts | 314° |
| 2026-05-05 14:00 | 50.63588 | 5.43274 | 643 ft | 9 kts | 285° |
| 2026-05-05 14:00 | 50.63618 | 5.43224 | 643 ft | 10 kts | 316° |
| 2026-05-05 14:00 | 50.63655 | 5.43168 | 643 ft | 1 kts | 315° |
| 2026-05-05 14:00 | 50.63655 | 5.43167 | 643 ft | 0 kts | 315° |